createdAt,value
2022-12-26T00:01:41.201Z,76.27
2022-12-26T00:11:46.553Z,71.33
2022-12-26T00:21:53.648Z,53.00
2022-12-26T00:31:55.842Z,63.40
2022-12-26T00:42:04.641Z,61.87
2022-12-26T00:52:06.892Z,58.73
2022-12-26T01:02:31.318Z,55.70
2022-12-26T01:12:38.345Z,56.63
2022-12-26T01:22:42.723Z,56.03
2022-12-26T01:32:47.232Z,43.27
2022-12-26T01:42:49.296Z,51.80
2022-12-26T01:52:58.565Z,56.37
2022-12-26T02:03:19.221Z,49.43
2022-12-26T02:13:21.587Z,55.53
2022-12-26T02:23:45.517Z,62.33
2022-12-26T02:34:14.175Z,61.63
2022-12-26T02:44:52.450Z,69.97
2022-12-26T02:55:30.262Z,71.43
2022-12-26T03:06:05.269Z,71.73
2022-12-26T03:16:29.817Z,65.57
2022-12-26T03:26:42.841Z,61.97
2022-12-26T03:37:14.887Z,77.07
2022-12-26T03:47:52.394Z,70.17
2022-12-26T03:58:24.998Z,71.83
2022-12-26T04:08:53.086Z,67.07
2022-12-26T04:19:25.800Z,63.87
2022-12-26T04:29:46.521Z,59.23
2022-12-26T04:40:09.152Z,79.43
2022-12-26T04:50:13.642Z,66.73
2022-12-26T05:00:18.317Z,68.00
2022-12-26T05:10:23.319Z,61.93
2022-12-26T05:20:48.939Z,56.23
2022-12-26T05:30:58.200Z,52.90
2022-12-26T05:41:03.432Z,55.53
2022-12-26T05:51:08.645Z,51.20
2022-12-26T06:01:19.776Z,41.47
2022-12-26T06:11:26.752Z,51.07
2022-12-26T06:21:31.677Z,38.73
2022-12-26T06:31:36.210Z,36.70
2022-12-26T06:41:38.333Z,23.30
2022-12-26T06:51:45.238Z,30.90
2022-12-26T07:01:47.457Z,31.97
2022-12-26T07:11:50.907Z,33.80
2022-12-26T07:21:52.976Z,31.97
2022-12-26T07:31:55.149Z,36.90
2022-12-26T07:41:59.663Z,24.93
2022-12-26T07:52:02.508Z,35.57
2022-12-26T08:02:10.398Z,34.07
2022-12-26T08:12:13.823Z,24.80
2022-12-26T08:22:15.989Z,30.30
2022-12-26T08:32:18.157Z,33.97
2022-12-26T08:42:25.516Z,32.37
2022-12-26T08:52:32.088Z,28.83
2022-12-26T09:02:37.064Z,32.17
2022-12-26T09:12:41.577Z,31.57
2022-12-26T09:22:52.132Z,28.50
2022-12-26T09:32:56.392Z,32.80
2022-12-26T09:43:13.102Z,34.93
2022-12-26T09:53:28.509Z,33.27
2022-12-26T10:03:30.905Z,34.97
2022-12-26T10:13:44.482Z,31.87
2022-12-26T10:23:55.485Z,31.27
2022-12-26T10:34:14.045Z,34.87
2022-12-26T10:44:25.568Z,38.17
2022-12-26T10:54:30.332Z,34.60
2022-12-26T11:05:10.504Z,32.73
2022-12-26T11:15:05.989Z,37.27
2022-12-26T11:25:08.038Z,44.40
2022-12-26T11:35:24.572Z,36.27
2022-12-26T11:45:38.531Z,26.57
2022-12-26T11:55:46.106Z,23.73
2022-12-26T12:06:00.397Z,23.27
2022-12-26T12:16:16.442Z,21.30
2022-12-26T12:26:42.222Z,18.53
2022-12-26T12:37:03.261Z,15.30
2022-12-26T12:47:14.832Z,15.00
2022-12-26T12:57:37.341Z,15.00
2022-12-26T13:07:53.368Z,16.13
2022-12-26T13:18:01.131Z,14.25
2022-12-26T13:28:12.539Z,14.77
2022-12-26T13:38:22.087Z,14.40
2022-12-26T13:48:27.501Z,15.75
2022-12-26T13:58:35.192Z,13.75
2022-12-26T14:08:37.161Z,14.13
2022-12-26T14:18:48.110Z,14.50
2022-12-26T14:29:16.044Z,17.08
2022-12-26T14:39:18.134Z,15.38
2022-12-26T14:49:38.593Z,14.93
2022-12-26T14:59:40.927Z,15.75
2022-12-26T15:10:06.681Z,12.88
2022-12-26T15:20:45.271Z,13.25
2022-12-26T15:31:11.108Z,12.68
2022-12-26T15:41:19.079Z,12.73
2022-12-26T15:51:39.231Z,14.07
2022-12-26T16:01:44.376Z,15.57
2022-12-26T16:11:58.680Z,12.75
2022-12-26T16:22:22.876Z,16.45
2022-12-26T16:32:34.837Z,15.20
2022-12-26T16:42:36.904Z,15.20
2022-12-26T16:52:46.411Z,17.75
2022-12-26T17:02:52.454Z,14.93
2022-12-26T17:13:05.078Z,18.50
2022-12-26T17:23:36.111Z,16.73
2022-12-26T17:33:41.458Z,15.30
2022-12-26T17:43:52.577Z,13.95
2022-12-26T17:53:56.953Z,15.17
2022-12-26T18:04:03.791Z,15.18
2022-12-26T18:14:13.827Z,21.20
2022-12-26T18:24:21.252Z,23.83
2022-12-26T18:34:23.375Z,23.42
2022-12-26T18:44:28.213Z,23.38
2022-12-26T18:54:34.283Z,22.38
2022-12-26T19:04:36.428Z,22.45
2022-12-26T19:14:41.788Z,18.55
2022-12-26T19:24:47.297Z,20.50
2022-12-26T19:34:56.154Z,20.08
2022-12-26T19:45:01.305Z,19.57
2022-12-26T19:55:07.410Z,19.67
2022-12-26T20:05:12.110Z,22.40
2022-12-26T20:15:20.678Z,19.63
2022-12-26T20:25:25.048Z,23.52
2022-12-26T20:35:30.436Z,22.13
2022-12-26T20:45:37.961Z,19.10
2022-12-26T20:55:42.539Z,19.95
2022-12-26T21:05:49.276Z,19.55
2022-12-26T21:15:53.770Z,21.27
2022-12-26T21:25:58.693Z,20.43
2022-12-26T21:36:10.565Z,19.97
2022-12-26T21:46:15.571Z,19.38
2022-12-26T21:56:18.532Z,17.50
2022-12-26T22:06:20.633Z,16.80
2022-12-26T22:16:23.009Z,18.37
2022-12-26T22:26:25.713Z,17.10
2022-12-26T22:36:28.954Z,19.38
2022-12-26T22:46:33.392Z,17.40
2022-12-26T22:56:37.802Z,16.70
2022-12-26T23:06:45.100Z,20.13
2022-12-26T23:16:55.073Z,18.80
2022-12-26T23:27:21.312Z,20.27
2022-12-26T23:37:26.528Z,24.77
2022-12-26T23:47:30.917Z,24.43
2022-12-26T23:57:33.202Z,23.03
